Hauptseite
METAR-TAF:

METAR-TAF

Flughäfen :

Rostock, Deutschland

Flughafen Rostock-Laage

Breite: 53-55N, Länge: 012-17E, Höhe: 40 m

Beobachtung

Neuester Wetterbericht von vor 34 Minuten, um 09:20 UTC
Wind 10 kt aus Nordwest
Temperatur 15°C
Luftfeuchtigkeit 55%
Luftdruck 1021 hPa
Sichtweite 10 km oder mehr
Leicht bewölkt in der Höhe von 27000 ft

METAR: ETNL 210920Z 31010KT 9999 FEW270 15/06 Q1021 BLU+

Zeit: 11:54 (09:54 UTC)

Prognose

Neuester Wetterbericht von vor 4 Stunden und 19 Minuten, um 05:35 UTC
Gültige Prognose vom 21 um 05 UTC bis 21 um 18 UTC
Wind 12 kt aus Nordwest
Sichtweite 10 km oder mehr
Leicht bewölkt in der Höhe von 30000 ft
Zeitweise
vom 21 um 05 UTC bis 21 um 07 UTC
Wind 5 kt aus West/Nordwest
Sichtweite: 3000 m
Himmel klar
feuchter Dunst

TAF: ETNL 210535Z 2105/2118 31012KT 9999 NSW FEW300 TEMPO 2105/2107 29005KT 3000 BR SKC BY ETGL

Wetterbeobachtungen und Prognosen von mehr als 4000 Flughäfen (METAR und TAF Bericht).

Die verfügbaren Stationen werden durch gelbe und rote Markierungen auf der Karte dargestellt.

Führen Sie die Maus auf sie, um den Namen der Station zu sehen.

Darauf klicken, um die Beobachtung von Wetterbeobachtungen und Prognosen zu sehen.

Um die Karte zu ändern : klicken Sie auf den grünen Tasten mit einem schwarzen Kreuz Zum Vergrößern, auf den grünen Button mit einem Gedankenstrich zu verkleinern, oder auf die grünen Pfeile für benachbarte Karten.


METAR-TAF: